Drujba — LZHX — position and weather

sailwx.info

Track history (hours):
 
Tides and Currents Weather Stations Pressure Air Temp Water Temp Dewpoint Dewpoint Depression Visibility Wind Speed Wind Dir Waves Ship Positions

Drujba

Last reported at 2017-Oct-08 00:47 UTC. Time now 2017-Oct-19 18:30 UTC.
Position N 42°23' E 031°58'.
Warning: this ship's position is 11 days out of date.

Length 150 m; draft 5.6 m.

Type: Passenger vessel. MMSI: 207277000.

Date/timePositionNaut miles runAvg speedWind from/ knotsBaromVisibWave heightAir tempDewpointWater temp
2017-Oct-08 00:47N 42°23' E 031°58'413.8
2017-Oct-08 00:30N 42°24' E 031°53'132 3.0
2017-Oct-06 04:17N 42°27' E 028°54'414.6
2017-Oct-06 04:00N 42°27' E 028°60'714.5
2017-Oct-06 03:30N 42°27' E 029°09'714.6
2017-Oct-06 03:00N 42°27' E 029°19'714.5
2017-Oct-06 02:30N 42°27' E 029°30'1214.4
2017-Oct-06 01:39N 42°26' E 029°46'214.4
2017-Oct-06 01:30N 42°26' E 029°49'  
Track history (hours):
 
Tides and Currents Weather Stations Pressure Air Temp Water Temp Dewpoint Dewpoint Depression Visibility Wind Speed Wind Dir Waves Ship Positions

Drujba

Last reported at 2017-Oct-08 00:47 UTC. Time now 2017-Oct-19 18:30 UTC.
Position N 42°23' E 031°58'.
Warning: this ship's position is 11 days out of date.

Length 150 m; draft 5.6 m.

Type: Passenger vessel. MMSI: 207277000.

Date/timePositionNaut miles runAvg speedWind from/ knotsBaromVisibWave heightAir tempDewpointWater temp
2017-Oct-08 00:47N 42°23' E 031°58'413.8
2017-Oct-08 00:30N 42°24' E 031°53'132 3.0
2017-Oct-06 04:17N 42°27' E 028°54'414.6
2017-Oct-06 04:00N 42°27' E 028°60'714.5
2017-Oct-06 03:30N 42°27' E 029°09'714.6
2017-Oct-06 03:00N 42°27' E 029°19'714.5
2017-Oct-06 02:30N 42°27' E 029°30'1214.4
2017-Oct-06 01:39N 42°26' E 029°46'214.4
2017-Oct-06 01:30N 42°26' E 029°49'  

Dump ship's entire track history